Time;durP1;ratioP1;P1;durP2;ratioP2;P2;SDS_P1;SDS_P2;PMS_P1;PMS_P2;Temp;Humidity;BMP_temperature;BMP_pressure;BME280_temperature;BME280_humidity;BME280_pressure;Samples;Min_cycle;Max_cycle;Signal;HPM_P1;HPM_P2
2023/04/12 00:01:46;;;;;;;9.60;4.27;;;4.70;99.90;;;;;;4918470;29;20244;-57
2023/04/12 00:04:15;;;;;;;6.73;4.53;;;4.70;99.90;;;;;;4918989;29;20471;-57
2023/04/12 00:06:47;;;;;;;10.17;4.60;;;4.70;99.90;;;;;;4918698;29;20261;-58
2023/04/12 00:09:15;;;;;;;8.07;4.90;;;4.60;99.90;;;;;;4919373;29;20228;-58
2023/04/12 00:11:43;;;;;;;5.20;4.33;;;4.60;99.90;;;;;;4919111;29;20692;-58
2023/04/12 00:14:11;;;;;;;7.63;4.80;;;4.60;99.90;;;;;;4919223;29;20251;-58
2023/04/12 00:16:40;;;;;;;6.57;4.40;;;4.50;99.90;;;;;;4919085;29;20574;-58
2023/04/12 00:19:09;;;;;;;10.63;4.70;;;4.60;99.90;;;;;;4918902;29;20461;-58
2023/04/12 00:21:37;;;;;;;9.50;4.50;;;4.60;99.90;;;;;;4918699;29;20472;-58
2023/04/12 00:24:07;;;;;;;6.73;4.43;;;4.60;99.90;;;;;;4919103;29;20631;-57
2023/04/12 00:26:35;;;;;;;6.30;4.53;;;4.60;99.90;;;;;;4918428;29;20469;-59
2023/04/12 00:29:03;;;;;;;7.63;4.60;;;4.50;99.90;;;;;;4917531;29;20477;-59
2023/04/12 00:31:31;;;;;;;6.73;4.40;;;4.50;99.90;;;;;;4918298;29;20500;-59
2023/04/12 00:34:02;;;;;;;7.43;4.20;;;4.50;99.90;;;;;;4917208;29;20541;-59
2023/04/12 00:36:30;;;;;;;9.00;4.40;;;4.50;99.90;;;;;;4918227;29;20993;-58
2023/04/12 00:38:58;;;;;;;5.43;3.80;;;4.50;99.90;;;;;;4917902;29;20243;-59
2023/04/12 00:41:28;;;;;;;6.63;3.90;;;4.60;99.90;;;;;;4918349;29;20219;-58
2023/04/12 00:43:56;;;;;;;9.53;4.00;;;4.60;99.90;;;;;;4918561;29;20224;-59
2023/04/12 00:46:24;;;;;;;7.47;3.73;;;4.50;99.90;;;;;;4918361;29;20503;-59
2023/04/12 00:48:52;;;;;;;8.57;3.80;;;4.50;99.90;;;;;;4918309;29;20492;-58
2023/04/12 00:51:21;;;;;;;9.40;4.13;;;4.50;99.90;;;;;;4917032;29;20476;-59
2023/04/12 00:53:49;;;;;;;5.43;3.70;;;4.50;99.90;;;;;;4918080;29;20221;-59
2023/04/12 00:56:18;;;;;;;9.73;3.47;;;4.50;99.90;;;;;;4916808;29;20483;-59
2023/04/12 00:58:48;;;;;;;8.43;3.80;;;4.50;99.90;;;;;;4918109;29;20470;-59
2023/04/12 01:01:18;;;;;;;9.37;3.63;;;4.50;99.90;;;;;;4918561;29;20487;-62
2023/04/12 01:03:46;;;;;;;8.87;3.83;;;4.50;99.90;;;;;;4918463;29;20571;-62
2023/04/12 01:06:25;;;;;;;6.37;3.50;;;4.50;99.90;;;;;;4918612;29;20554;-62
2023/04/12 01:09:03;;;;;;;6.40;3.30;;;4.50;99.90;;;;;;4917438;29;20571;-62
2023/04/12 01:11:36;;;;;;;7.33;3.53;;;4.50;99.90;;;;;;4918566;29;20228;-62
2023/04/12 01:14:11;;;;;;;8.03;3.50;;;4.50;99.90;;;;;;4917488;29;20504;-62
2023/04/12 01:16:44;;;;;;;6.87;3.13;;;4.50;99.90;;;;;;4917388;29;20240;-62
2023/04/12 01:19:29;;;;;;;5.93;3.70;;;4.50;99.90;;;;;;4917399;29;20511;-62
2023/04/12 01:22:12;;;;;;;7.87;3.30;;;4.50;99.90;;;;;;4917275;29;20468;-62
2023/04/12 01:24:51;;;;;;;5.17;3.17;;;4.50;99.90;;;;;;4916941;29;20826;-62
2023/04/12 01:27:46;;;;;;;5.87;2.70;;;4.50;99.90;;;;;;4899874;29;20697;-62
2023/04/12 01:30:17;;;;;;;7.43;3.80;;;4.50;99.90;;;;;;4898997;29;20313;-62
2023/04/12 01:32:49;;;;;;;8.77;3.37;;;4.60;99.90;;;;;;4906656;29;20243;-62
2023/04/12 01:35:19;;;;;;;6.00;3.13;;;4.50;99.90;;;;;;4918288;29;20563;-62
2023/04/12 01:37:47;;;;;;;6.87;3.10;;;4.50;99.90;;;;;;4918348;29;20979;-62
2023/04/12 01:40:18;;;;;;;5.30;3.07;;;4.50;99.90;;;;;;4917653;29;20224;-62
2023/04/12 01:42:47;;;;;;;4.93;3.10;;;4.50;99.90;;;;;;4916289;29;20483;-62
2023/04/12 01:45:15;;;;;;;7.47;2.93;;;4.50;99.90;;;;;;4918610;29;20224;-63
2023/04/12 01:47:44;;;;;;;6.27;2.83;;;4.50;99.90;;;;;;4917073;29;20229;-63
2023/04/12 01:50:18;;;;;;;6.20;2.83;;;4.50;99.90;;;;;;4918441;29;20256;-62
2023/04/12 01:53:00;;;;;;;5.07;2.90;;;4.50;99.90;;;;;;4918257;29;20704;-62
2023/04/12 01:55:31;;;;;;;5.97;2.50;;;4.50;99.90;;;;;;4918798;29;20275;-63
2023/04/12 01:58:03;;;;;;;9.53;2.60;;;4.50;99.90;;;;;;4918491;29;20224;-62
2023/04/12 02:00:32;;;;;;;4.87;2.80;;;4.50;99.90;;;;;;4916564;29;20263;-62
2023/04/12 02:03:00;;;;;;;5.07;2.80;;;4.50;99.90;;;;;;4917404;29;20247;-62
2023/04/12 02:05:28;;;;;;;5.10;3.03;;;4.50;99.90;;;;;;4932376;29;20240;-62
2023/04/12 02:07:56;;;;;;;6.57;3.40;;;4.50;99.90;;;;;;4917752;29;20724;-62
2023/04/12 02:10:29;;;;;;;5.63;3.23;;;4.60;99.90;;;;;;4916558;29;20229;-62
2023/04/12 02:13:00;;;;;;;6.20;3.37;;;4.60;99.90;;;;;;4917972;29;20484;-62
2023/04/12 02:15:30;;;;;;;9.93;4.07;;;4.60;99.90;;;;;;4916467;29;21059;-62
2023/04/12 02:18:00;;;;;;;8.43;4.03;;;4.60;99.90;;;;;;4916467;29;20625;-62
2023/04/12 02:20:28;;;;;;;7.10;3.87;;;4.60;99.90;;;;;;4897237;29;21004;-63
2023/04/12 02:22:56;;;;;;;10.23;4.50;;;4.60;99.90;;;;;;4898842;29;20708;-62
2023/04/12 02:25:26;;;;;;;7.10;5.20;;;4.60;99.90;;;;;;4899044;29;20279;-62
2023/04/12 02:27:54;;;;;;;7.13;4.77;;;4.60;99.90;;;;;;4899422;29;20895;-62
2023/04/12 02:30:25;;;;;;;11.27;5.23;;;4.60;99.90;;;;;;4897660;29;21085;-62
2023/04/12 02:32:54;;;;;;;9.43;5.63;;;4.60;99.90;;;;;;4907979;29;20475;-62
2023/04/12 02:35:27;;;;;;;10.00;5.10;;;4.60;99.90;;;;;;4916516;29;20510;-62
2023/04/12 02:38:02;;;;;;;8.43;5.20;;;4.70;99.90;;;;;;4916634;29;20683;-62
2023/04/12 02:40:30;;;;;;;9.23;4.90;;;4.70;99.90;;;;;;4917956;29;20231;-62
2023/04/12 02:42:58;;;;;;;11.33;5.57;;;4.70;99.90;;;;;;4916395;29;20576;-62
2023/04/12 02:45:28;;;;;;;7.87;5.27;;;4.70;99.90;;;;;;4916516;29;20795;-61
2023/04/12 02:47:57;;;;;;;9.60;5.10;;;4.80;99.90;;;;;;4917287;29;20477;-63
2023/04/12 02:50:29;;;;;;;9.67;4.80;;;4.80;99.90;;;;;;4917122;29;20482;-62
2023/04/12 02:53:09;;;;;;;7.63;4.67;;;4.80;99.90;;;;;;4916898;29;20988;-63
2023/04/12 02:55:39;;;;;;;9.67;4.23;;;4.80;99.90;;;;;;4916773;29;20528;-63
2023/04/12 02:58:08;;;;;;;10.17;4.73;;;4.80;99.90;;;;;;4916886;29;20568;-62
2023/04/12 03:00:46;;;;;;;9.13;4.53;;;4.90;99.90;;;;;;4917481;29;20558;-62
2023/04/12 03:03:17;;;;;;;8.40;4.47;;;4.80;99.90;;;;;;4918502;29;20253;-63
2023/04/12 03:05:49;;;;;;;10.83;4.03;;;4.90;99.90;;;;;;4919910;29;20468;-63
2023/04/12 03:08:17;;;;;;;8.53;4.37;;;4.90;99.90;;;;;;4920696;29;20315;-63
2023/04/12 03:10:52;;;;;;;8.17;4.30;;;4.90;99.90;;;;;;4920429;29;20479;-62
2023/04/12 03:13:21;;;;;;;7.63;3.67;;;4.90;99.90;;;;;;4920013;29;20987;-63
2023/04/12 03:15:56;;;;;;;8.97;3.70;;;5.00;99.90;;;;;;4920034;29;20498;-62
2023/04/12 03:18:31;;;;;;;8.80;3.93;;;5.00;99.90;;;;;;4935984;29;20224;-62
2023/04/12 03:21:01;;;;;;;8.93;3.80;;;5.00;99.90;;;;;;4920713;29;20600;-62
2023/04/12 03:23:30;;;;;;;9.90;4.17;;;5.00;99.90;;;;;;4920680;29;20720;-62
2023/04/12 03:26:07;;;;;;;9.73;4.07;;;5.00;99.90;;;;;;4920895;29;20477;-62
2023/04/12 03:28:35;;;;;;;7.60;3.70;;;5.00;99.90;;;;;;4921309;29;20837;-62
2023/04/12 03:31:07;;;;;;;6.60;3.90;;;5.10;99.90;;;;;;4920017;29;20500;-63
2023/04/12 03:33:40;;;;;;;7.17;3.67;;;5.10;99.90;;;;;;4920889;29;20468;-62
2023/04/12 03:36:17;;;;;;;6.73;3.77;;;5.10;99.90;;;;;;4920416;29;20480;-62
2023/04/12 03:38:51;;;;;;;11.03;3.80;;;5.10;99.90;;;;;;4920980;29;20245;-63
2023/04/12 03:41:22;;;;;;;8.73;3.40;;;5.10;99.90;;;;;;4936365;29;20536;-63
2023/04/12 03:43:50;;;;;;;7.30;3.17;;;5.10;99.90;;;;;;4936605;29;20319;-63
2023/04/12 03:46:20;;;;;;;5.60;3.03;;;5.10;99.90;;;;;;4936290;29;20649;-62
2023/04/12 03:48:55;;;;;;;8.50;2.90;;;5.10;99.90;;;;;;4920612;29;20240;-63
2023/04/12 03:51:25;;;;;;;6.77;2.87;;;5.10;99.90;;;;;;4920484;29;20472;-63
2023/04/12 03:54:01;;;;;;;8.90;3.00;;;5.10;99.90;;;;;;4921751;29;20480;-62
2023/04/12 03:56:39;;;;;;;6.60;2.70;;;5.20;99.90;;;;;;4919163;29;20244;-63
2023/04/12 03:59:13;;;;;;;7.00;2.70;;;5.20;99.90;;;;;;4920797;29;20234;-63
2023/04/12 04:01:45;;;;;;;6.80;2.57;;;5.20;99.90;;;;;;4911959;29;20712;-62
2023/04/12 04:04:13;;;;;;;5.70;2.03;;;5.10;99.90;;;;;;4921364;29;20551;-63
2023/04/12 04:06:41;;;;;;;5.37;2.17;;;5.20;99.90;;;;;;4921017;29;20532;-63
2023/04/12 04:09:09;;;;;;;6.37;2.50;;;5.20;99.90;;;;;;4922124;29;20233;-62
2023/04/12 04:11:38;;;;;;;8.80;2.80;;;5.20;99.90;;;;;;4936975;29;20240;-62
2023/04/12 04:14:07;;;;;;;5.97;2.40;;;5.20;99.90;;;;;;4921766;29;20496;-63
2023/04/12 04:16:35;;;;;;;9.43;3.50;;;5.20;99.90;;;;;;4920283;29;20532;-63
2023/04/12 04:19:08;;;;;;;6.73;2.27;;;5.20;99.90;;;;;;4918071;29;20216;-62
2023/04/12 04:21:36;;;;;;;6.30;2.10;;;5.20;99.90;;;;;;4919489;29;20476;-62
2023/04/12 04:24:05;;;;;;;5.63;1.93;;;5.20;99.90;;;;;;4919912;29;20299;-62
2023/04/12 04:26:38;;;;;;;5.90;1.90;;;5.20;99.90;;;;;;4919602;29;20315;-61
2023/04/12 04:29:19;;;;;;;6.57;2.13;;;5.30;99.90;;;;;;4933658;29;20235;-63
2023/04/12 04:31:48;;;;;;;5.37;2.17;;;5.20;99.90;;;;;;4920172;29;20266;-63
2023/04/12 04:34:18;;;;;;;5.23;1.83;;;5.30;99.90;;;;;;4917195;29;20327;-63
2023/04/12 04:36:48;;;;;;;4.90;1.97;;;5.30;99.90;;;;;;4920170;29;20232;-62
2023/04/12 04:39:26;;;;;;;5.17;1.90;;;5.30;99.90;;;;;;4919246;29;20212;-62
2023/04/12 04:41:56;;;;;;;6.77;1.97;;;5.30;99.90;;;;;;4920562;29;20228;-63
2023/04/12 04:44:49;;;;;;;6.87;2.10;;;5.30;99.90;;;;;;4920186;29;20236;-63
2023/04/12 04:47:18;;;;;;;3.43;1.80;;;5.30;99.90;;;;;;4921099;29;20236;-63
2023/04/12 04:49:48;;;;;;;4.77;1.77;;;5.30;99.90;;;;;;4921523;29;20488;-63
2023/04/12 04:52:27;;;;;;;3.97;2.27;;;5.30;99.90;;;;;;4920887;29;20260;-62
2023/04/12 04:55:01;;;;;;;6.00;2.17;;;5.40;99.90;;;;;;4929565;29;20224;-63
2023/04/12 04:57:36;;;;;;;4.80;1.90;;;5.30;99.90;;;;;;4936312;29;20236;-62
2023/04/12 05:00:10;;;;;;;4.63;2.00;;;5.30;99.90;;;;;;4919679;29;20256;-63
2023/04/12 05:02:41;;;;;;;3.87;2.20;;;5.30;99.90;;;;;;4918503;29;20248;-63
2023/04/12 05:05:14;;;;;;;3.23;2.10;;;5.30;99.90;;;;;;4920959;29;20227;-63
2023/04/12 05:07:44;;;;;;;6.00;2.20;;;5.30;99.90;;;;;;4920993;29;20716;-62
2023/04/12 05:10:12;;;;;;;4.33;1.47;;;5.30;99.90;;;;;;4922681;29;20233;-63
2023/04/12 05:12:42;;;;;;;4.77;2.10;;;5.30;99.90;;;;;;4921049;29;20229;-63
2023/04/12 05:15:12;;;;;;;7.00;1.80;;;5.40;99.90;;;;;;4930747;29;20232;-62
2023/04/12 05:17:41;;;;;;;4.77;2.30;;;5.40;99.90;;;;;;4921371;29;20694;-63
2023/04/12 05:20:10;;;;;;;8.93;2.17;;;5.50;99.90;;;;;;4922791;29;20228;-63
2023/04/12 05:22:40;;;;;;;5.97;2.00;;;5.50;99.90;;;;;;4920843;29;20238;-63
2023/04/12 05:25:09;;;;;;;6.50;1.70;;;5.50;99.90;;;;;;4922208;29;20483;-62
2023/04/12 05:27:44;;;;;;;5.07;1.57;;;5.50;99.90;;;;;;4920153;29;20244;-62
2023/04/12 05:30:16;;;;;;;4.07;1.70;;;5.50;99.90;;;;;;4936509;28;20584;-62
2023/04/12 05:32:44;;;;;;;8.37;1.80;;;5.60;99.90;;;;;;4921441;29;20229;-63
2023/04/12 05:35:15;;;;;;;6.30;1.80;;;5.70;99.90;;;;;;4919770;29;20229;-62
2023/04/12 05:37:45;;;;;;;3.30;1.40;;;5.80;99.90;;;;;;4919903;29;20253;-62
2023/04/12 05:40:13;;;;;;;3.43;1.70;;;5.90;99.90;;;;;;4920763;29;20629;-62
2023/04/12 05:42:42;;;;;;;2.90;1.50;;;6.00;99.90;;;;;;4921421;29;20223;-62
2023/04/12 05:45:11;;;;;;;2.70;1.60;;;6.10;99.90;;;;;;4917907;29;20232;-62
2023/04/12 05:47:41;;;;;;;3.53;2.00;;;6.20;99.90;;;;;;4918770;29;20256;-62
2023/04/12 05:50:10;;;;;;;3.87;1.60;;;6.20;99.90;;;;;;4918696;29;20232;-62
2023/04/12 05:52:39;;;;;;;5.53;1.70;;;6.40;99.90;;;;;;4918610;29;20655;-62
2023/04/12 05:55:10;;;;;;;4.43;2.00;;;6.40;99.90;;;;;;4918818;29;20267;-62
2023/04/12 05:57:40;;;;;;;5.50;1.87;;;6.50;99.90;;;;;;4918983;29;20229;-62
2023/04/12 06:00:13;;;;;;;4.17;1.50;;;6.50;99.90;;;;;;4934236;29;20221;-62
2023/04/12 06:02:44;;;;;;;5.50;2.43;;;6.60;99.90;;;;;;4921401;29;20272;-62
2023/04/12 06:05:12;;;;;;;5.43;2.13;;;6.70;99.90;;;;;;4926367;29;20593;-62
2023/04/12 06:07:45;;;;;;;3.37;2.30;;;6.80;99.90;;;;;;4914620;29;20232;-62
2023/04/12 06:10:16;;;;;;;4.03;2.00;;;7.00;99.90;;;;;;4918973;29;20225;-62
2023/04/12 06:12:48;;;;;;;2.80;1.70;;;7.10;99.90;;;;;;4918371;29;20228;-62
2023/04/12 06:15:18;;;;;;;6.77;2.10;;;7.20;99.90;;;;;;4918809;29;20242;-62
2023/04/12 06:17:47;;;;;;;4.77;1.90;;;7.40;99.90;;;;;;4918860;29;20232;-63
2023/04/12 06:20:15;;;;;;;5.03;1.83;;;7.60;99.90;;;;;;4919876;29;20228;-62
2023/04/12 06:22:43;;;;;;;5.03;1.97;;;7.70;99.90;;;;;;4920497;29;20592;-62
2023/04/12 06:25:16;;;;;;;6.23;2.07;;;7.70;99.90;;;;;;4934742;29;20286;-62
2023/04/12 06:27:47;;;;;;;3.77;1.90;;;7.70;99.90;;;;;;4919603;29;20271;-63
2023/04/12 06:30:18;;;;;;;4.03;1.60;;;7.80;99.90;;;;;;4915075;29;20720;-62
2023/04/12 06:32:47;;;;;;;4.80;2.27;;;7.80;99.90;;;;;;4918988;29;20708;-63
2023/04/12 06:35:15;;;;;;;4.53;1.70;;;7.70;99.90;;;;;;4934652;29;20224;-63
2023/04/12 06:37:43;;;;;;;6.90;2.20;;;7.80;99.90;;;;;;4918282;29;20228;-62
2023/04/12 06:40:12;;;;;;;3.50;1.43;;;8.00;99.90;;;;;;4910695;29;20588;-61
2023/04/12 06:42:41;;;;;;;6.00;1.77;;;8.00;99.90;;;;;;4908475;29;20292;-61
2023/04/12 06:45:12;;;;;;;7.37;2.00;;;8.00;99.90;;;;;;4922990;29;20342;-59
2023/04/12 06:47:40;;;;;;;5.80;2.07;;;7.90;99.90;;;;;;4909159;29;21041;-60
2023/04/12 06:50:09;;;;;;;6.40;2.27;;;7.80;99.90;;;;;;4906751;29;20288;-62
2023/04/12 06:52:37;;;;;;;4.30;1.70;;;7.80;99.90;;;;;;4908692;29;20247;-61
2023/04/12 06:55:07;;;;;;;5.63;1.97;;;7.70;99.90;;;;;;4908273;29;20233;-62
2023/04/12 06:57:35;;;;;;;6.70;2.30;;;7.70;99.90;;;;;;4908042;29;20244;-61
2023/04/12 07:00:05;;;;;;;8.07;2.40;;;7.70;99.90;;;;;;4906893;29;20228;-60
2023/04/12 07:02:33;;;;;;;8.23;2.00;;;7.70;99.90;;;;;;4907333;29;20308;-60
2023/04/12 07:05:01;;;;;;;4.57;1.97;;;7.60;99.90;;;;;;4908119;29;20316;-61
2023/04/12 07:07:29;;;;;;;6.27;2.33;;;7.70;99.90;;;;;;4908811;29;20236;-60
2023/04/12 07:09:59;;;;;;;3.87;2.17;;;7.70;99.90;;;;;;4908477;29;20236;-60
2023/04/12 07:12:27;;;;;;;5.77;1.93;;;7.70;99.90;;;;;;4909604;29;20577;-61
2023/04/12 07:14:55;;;;;;;5.60;1.80;;;7.80;99.90;;;;;;4909586;29;21053;-61
2023/04/12 07:17:25;;;;;;;4.57;1.90;;;7.80;99.90;;;;;;4908740;29;20615;-60
2023/04/12 07:19:54;;;;;;;5.63;1.90;;;7.90;99.90;;;;;;4908570;29;20304;-61
2023/04/12 07:22:22;;;;;;;5.00;2.00;;;7.90;99.90;;;;;;4909455;29;20725;-61
2023/04/12 07:24:51;;;;;;;2.40;1.60;;;8.00;99.90;;;;;;4909060;29;20233;-61
2023/04/12 07:27:19;;;;;;;3.93;1.80;;;8.00;99.90;;;;;;4907514;29;20713;-61
2023/04/12 07:29:47;;;;;;;6.63;2.00;;;7.90;99.90;;;;;;4905054;29;20240;-59
2023/04/12 07:32:15;;;;;;;4.47;2.00;;;7.90;99.90;;;;;;4906674;29;20236;-61
2023/04/12 07:34:45;;;;;;;7.23;2.20;;;8.00;99.90;;;;;;4906999;29;20226;-61
2023/04/12 07:37:13;;;;;;;6.37;2.10;;;7.90;99.90;;;;;;4907491;29;20208;-60
2023/04/12 07:39:41;;;;;;;5.53;2.00;;;8.00;99.90;;;;;;4907246;29;20205;-61
2023/04/12 07:42:09;;;;;;;3.87;1.93;;;7.90;99.90;;;;;;4908058;29;20313;-61
2023/04/12 07:44:37;;;;;;;4.57;1.83;;;7.90;99.90;;;;;;4907259;29;20213;-60
2023/04/12 07:47:06;;;;;;;5.87;1.93;;;8.00;99.90;;;;;;4907552;29;20666;-61
2023/04/12 07:49:34;;;;;;;6.57;1.70;;;8.00;99.90;;;;;;4905972;29;20220;-60
2023/04/12 07:52:03;;;;;;;5.20;2.10;;;8.10;99.90;;;;;;4911795;29;20221;-62
2023/04/12 07:54:31;;;;;;;4.03;2.13;;;8.10;99.90;;;;;;4910580;29;20239;-61
2023/04/12 07:57:02;;;;;;;7.17;2.07;;;8.00;99.90;;;;;;4910396;29;20220;-61
2023/04/12 07:59:31;;;;;;;5.03;2.80;;;8.10;99.90;;;;;;4907963;29;20661;-61
2023/04/12 08:01:59;;;;;;;5.33;2.47;;;8.10;99.90;;;;;;4909838;29;20272;-61
2023/04/12 08:04:30;;;;;;;5.93;2.20;;;8.20;99.90;;;;;;4910171;29;20201;-60
2023/04/12 08:07:00;;;;;;;5.77;2.37;;;8.30;99.90;;;;;;4910896;29;20273;-61
2023/04/12 08:09:30;;;;;;;4.87;1.77;;;8.40;99.90;;;;;;4908307;29;20213;-59
2023/04/12 08:11:58;;;;;;;6.03;1.80;;;8.50;99.90;;;;;;4910300;29;20724;-61
2023/04/12 08:14:26;;;;;;;7.87;2.67;;;8.50;99.90;;;;;;4909779;29;20236;-60
2023/04/12 08:16:54;;;;;;;3.87;1.73;;;8.50;99.90;;;;;;4911092;29;20240;-62
2023/04/12 08:19:24;;;;;;;5.47;1.67;;;8.50;99.90;;;;;;4907581;29;20367;-61
2023/04/12 08:21:52;;;;;;;7.77;1.63;;;8.50;99.90;;;;;;4909752;29;20272;-61
2023/04/12 08:24:20;;;;;;;5.77;1.80;;;8.50;99.90;;;;;;4909664;29;20237;-61
2023/04/12 08:26:50;;;;;;;4.40;1.67;;;8.60;99.90;;;;;;4909341;29;20727;-60
2023/04/12 08:29:18;;;;;;;6.93;1.90;;;8.60;99.90;;;;;;4909716;29;20230;-60
2023/04/12 08:31:46;;;;;;;7.23;1.90;;;8.60;99.90;;;;;;4910713;28;20244;-60
2023/04/12 08:34:15;;;;;;;4.53;1.50;;;8.70;99.90;;;;;;4911516;29;20260;-60
2023/04/12 08:36:43;;;;;;;4.60;2.00;;;8.70;99.90;;;;;;4912216;29;20753;-60
2023/04/12 08:39:11;;;;;;;6.73;2.87;;;8.70;99.90;;;;;;4907778;29;20236;-59
2023/04/12 08:41:39;;;;;;;10.90;5.70;;;8.70;99.90;;;;;;4907980;29;20712;-61
2023/04/12 08:44:11;;;;;;;7.60;4.30;;;8.80;99.90;;;;;;4908947;29;20701;-60
2023/04/12 08:46:39;;;;;;;6.23;2.30;;;8.80;99.90;;;;;;4909497;29;20244;-60
2023/04/12 08:49:07;;;;;;;4.73;2.07;;;8.80;99.90;;;;;;4907356;29;20241;-61
2023/04/12 08:51:36;;;;;;;3.83;1.97;;;8.90;99.90;;;;;;4908831;29;20748;-61
2023/04/12 08:54:05;;;;;;;4.60;1.77;;;9.00;99.90;;;;;;4908779;29;20279;-59
2023/04/12 08:56:33;;;;;;;4.83;1.87;;;9.00;99.90;;;;;;4909280;29;20233;-60
2023/04/12 08:59:02;;;;;;;3.73;1.60;;;9.00;99.90;;;;;;4907745;29;20680;-61
2023/04/12 09:01:31;;;;;;;4.27;1.70;;;9.00;99.90;;;;;;4907692;29;20197;-61
2023/04/12 09:04:00;;;;;;;6.37;2.00;;;9.10;99.90;;;;;;4907325;29;20240;-61
2023/04/12 09:06:28;;;;;;;4.57;1.80;;;9.20;99.90;;;;;;4910510;29;20221;-60
2023/04/12 09:08:58;;;;;;;7.07;3.73;;;9.30;99.90;;;;;;4909573;29;20503;-61
2023/04/12 09:11:28;;;;;;;6.37;3.47;;;9.30;99.90;;;;;;4908839;29;20724;-61
2023/04/12 09:13:57;;;;;;;7.10;2.57;;;9.30;99.90;;;;;;4907137;29;21218;-60
2023/04/12 09:16:38;;;;;;;6.97;2.00;;;9.40;99.90;;;;;;4908725;29;20221;-61
2023/04/12 09:19:06;;;;;;;9.77;2.17;;;9.50;99.90;;;;;;4906982;29;20224;-60
2023/04/12 09:21:35;;;;;;;4.60;2.10;;;9.60;99.90;;;;;;4908021;29;20312;-59
2023/04/12 09:24:08;;;;;;;5.90;1.83;;;9.60;99.90;;;;;;4909381;29;20206;-60
2023/04/12 09:26:40;;;;;;;4.27;1.60;;;9.60;99.90;;;;;;4911153;29;21379;-60
2023/04/12 09:29:23;;;;;;;6.53;1.93;;;9.60;99.90;;;;;;4909781;29;20221;-61
2023/04/12 09:32:00;;;;;;;7.63;2.10;;;9.60;99.90;;;;;;4908446;29;20696;-61
2023/04/12 09:34:29;;;;;;;4.83;2.23;;;9.60;99.90;;;;;;4909978;29;20220;-59
2023/04/12 09:36:58;;;;;;;4.50;1.87;;;9.60;99.90;;;;;;4910871;29;20245;-60
2023/04/12 09:39:33;;;;;;;4.30;1.87;;;9.70;99.90;;;;;;4909371;29;20565;-59
2023/04/12 09:42:06;;;;;;;4.20;1.77;;;9.60;99.90;;;;;;4911472;29;20266;-61
2023/04/12 09:44:45;;;;;;;4.50;2.13;;;9.60;99.90;;;;;;4910000;29;20218;-61
2023/04/12 09:47:14;;;;;;;4.07;2.03;;;9.40;99.90;;;;;;4910939;29;20314;-62
2023/04/12 09:49:44;;;;;;;7.20;1.97;;;9.40;99.90;;;;;;4909904;29;20693;-60
2023/04/12 09:52:14;;;;;;;3.80;2.10;;;9.30;99.90;;;;;;4909193;29;20268;-62
2023/04/12 09:54:44;;;;;;;4.83;2.33;;;9.20;99.90;;;;;;4907616;29;20342;-61
2023/04/12 09:57:13;;;;;;;5.43;2.13;;;9.10;99.90;;;;;;4909157;29;20712;-63
2023/04/12 09:59:42;;;;;;;4.37;2.20;;;9.10;99.90;;;;;;4906287;29;20238;-62
2023/04/12 10:02:16;;;;;;;6.30;2.40;;;9.00;99.90;;;;;;4907448;29;20326;-62
2023/04/12 10:04:45;;;;;;;5.30;2.20;;;9.00;99.90;;;;;;4907740;29;20243;-60
2023/04/12 10:07:14;;;;;;;5.63;2.40;;;9.00;99.90;;;;;;4908288;29;20226;-62
2023/04/12 10:09:42;;;;;;;5.20;2.33;;;9.00;99.90;;;;;;4907050;29;20233;-62
2023/04/12 10:12:10;;;;;;;4.07;2.00;;;9.00;99.90;;;;;;4905467;29;20229;-59
2023/04/12 10:14:39;;;;;;;5.80;2.87;;;9.00;99.90;;;;;;4904260;29;20237;-59
2023/04/12 10:17:09;;;;;;;4.63;2.77;;;9.00;99.90;;;;;;4904471;29;20240;-59
2023/04/12 10:19:39;;;;;;;5.00;2.53;;;9.00;99.90;;;;;;4901934;29;20237;-60
2023/04/12 10:22:07;;;;;;;5.13;2.77;;;9.00;99.90;;;;;;4905578;29;20826;-59
2023/04/12 10:24:36;;;;;;;7.23;3.00;;;9.10;99.90;;;;;;4906154;29;20239;-59
2023/04/12 10:27:05;;;;;;;4.40;2.87;;;9.10;99.90;;;;;;4904574;29;20237;-59
2023/04/12 10:29:35;;;;;;;6.33;3.27;;;9.10;99.90;;;;;;4902741;29;20328;-58
2023/04/12 10:32:19;;;;;;;7.73;3.27;;;9.10;99.90;;;;;;4903532;28;20740;-58
2023/04/12 10:34:52;;;;;;;5.03;2.80;;;9.10;99.90;;;;;;4904211;29;20246;-59
2023/04/12 10:37:21;;;;;;;6.70;3.47;;;9.00;99.90;;;;;;4905065;29;20225;-59
2023/04/12 10:39:53;;;;;;;5.07;2.73;;;9.00;99.90;;;;;;4902479;29;20238;-59
2023/04/12 10:42:23;;;;;;;6.13;3.20;;;8.90;99.90;;;;;;4905363;29;20244;-59
2023/04/12 10:44:53;;;;;;;3.47;2.47;;;8.90;99.90;;;;;;4904164;29;20233;-58
2023/04/12 10:47:55;;;;;;;5.77;3.10;;;8.80;99.90;;;;;;4905624;29;20333;-59
2023/04/12 10:50:28;;;;;;;8.50;3.30;;;8.80;99.90;;;;;;4904668;29;21144;-59
2023/04/12 10:53:26;;;;;;;8.73;3.70;;;8.80;99.90;;;;;;4906551;29;21318;-58
2023/04/12 10:55:54;;;;;;;8.43;4.20;;;8.70;99.90;;;;;;4904810;29;20248;-58
2023/04/12 10:58:56;;;;;;;6.00;3.40;;;8.80;99.90;;;;;;4918328;29;20633;-59
2023/04/12 11:01:28;;;;;;;7.80;3.53;;;8.80;99.90;;;;;;4911712;29;20319;-59
2023/04/12 11:04:14;;;;;;;11.83;4.90;;;8.80;99.90;;;;;;4915226;29;20238;-58
2023/04/12 11:06:58;;;;;;;9.80;5.57;;;8.90;99.90;;;;;;4913247;29;20495;-60
2023/04/12 11:09:42;;;;;;;10.90;4.07;;;8.90;99.90;;;;;;4916067;29;20281;-60
2023/04/12 11:12:28;;;;;;;8.50;3.43;;;8.90;99.90;;;;;;4922695;29;20269;-60
2023/04/12 11:15:00;;;;;;;6.07;3.60;;;8.90;99.90;;;;;;4916540;29;20639;-60
2023/04/12 11:17:54;;;;;;;5.67;2.90;;;8.80;99.90;;;;;;4915883;29;20238;-60
2023/04/12 11:20:22;;;;;;;9.77;3.43;;;8.80;99.90;;;;;;4916240;29;20242;-60
2023/04/12 11:22:53;;;;;;;5.63;3.13;;;8.80;99.90;;;;;;4916539;29;20226;-59
2023/04/12 11:25:24;;;;;;;5.30;2.97;;;8.70;99.90;;;;;;4918323;29;20324;-60
2023/04/12 11:27:53;;;;;;;5.00;3.10;;;8.70;99.90;;;;;;4919965;29;20592;-60
2023/04/12 11:30:25;;;;;;;8.37;3.10;;;8.70;99.90;;;;;;4918213;29;20226;-60
2023/04/12 11:32:53;;;;;;;5.37;3.07;;;8.60;99.90;;;;;;4919949;29;20247;-60
2023/04/12 11:35:26;;;;;;;6.07;3.40;;;8.70;99.90;;;;;;4919791;29;20686;-60
2023/04/12 11:37:57;;;;;;;5.47;3.30;;;8.60;99.90;;;;;;4919798;29;20325;-59
2023/04/12 11:40:26;;;;;;;6.27;3.37;;;8.60;99.90;;;;;;4918466;29;20242;-60
2023/04/12 11:42:56;;;;;;;6.33;3.03;;;8.60;99.90;;;;;;4919494;29;20225;-60
2023/04/12 11:45:25;;;;;;;5.33;2.83;;;8.60;99.90;;;;;;4919069;29;20694;-59
2023/04/12 11:47:56;;;;;;;6.43;2.80;;;8.60;99.90;;;;;;4919220;29;20270;-59
2023/04/12 11:50:29;;;;;;;5.40;2.50;;;8.70;99.90;;;;;;4919383;29;20236;-60
2023/04/12 11:53:11;;;;;;;5.37;2.40;;;8.70;99.90;;;;;;4919652;29;20603;-59
2023/04/12 11:55:39;;;;;;;5.73;2.47;;;8.70;99.90;;;;;;4919533;29;20270;-60
2023/04/12 11:58:07;;;;;;;5.10;2.77;;;8.70;99.90;;;;;;4919812;29;20245;-60
2023/04/12 12:00:35;;;;;;;4.57;2.63;;;8.60;99.90;;;;;;4919108;29;20762;-59
2023/04/12 12:03:04;;;;;;;3.90;2.60;;;8.60;99.90;;;;;;4918912;29;20241;-60
2023/04/12 12:05:37;;;;;;;4.03;2.83;;;8.60;99.90;;;;;;4919083;29;20309;-60
2023/04/12 12:08:07;;;;;;;4.53;3.17;;;8.60;99.90;;;;;;4918993;29;20313;-60
2023/04/12 12:10:38;;;;;;;5.40;3.03;;;8.60;99.90;;;;;;4919331;29;20233;-60
2023/04/12 12:13:26;;;;;;;3.60;2.70;;;8.80;99.90;;;;;;4918746;29;20229;-59
2023/04/12 12:15:54;;;;;;;5.47;3.30;;;8.80;99.90;;;;;;4919398;29;20585;-60
2023/04/12 12:18:27;;;;;;;5.97;3.63;;;8.80;99.90;;;;;;4918948;29;20234;-60
2023/04/12 12:20:55;;;;;;;5.83;3.10;;;8.80;99.90;;;;;;4919028;29;20242;-60
2023/04/12 12:23:31;;;;;;;7.93;5.00;;;8.90;99.90;;;;;;4919158;29;20241;-59
2023/04/12 12:26:02;;;;;;;5.30;3.83;;;8.90;99.90;;;;;;4919198;29;20596;-60
2023/04/12 12:28:50;;;;;;;5.83;3.87;;;8.90;99.90;;;;;;4919053;29;20657;-60
2023/04/12 12:31:20;;;;;;;5.07;3.80;;;9.00;99.90;;;;;;4918549;29;20807;-59
2023/04/12 12:33:51;;;;;;;7.43;3.50;;;9.00;99.90;;;;;;4918407;29;20248;-60
2023/04/12 12:36:19;;;;;;;7.13;3.23;;;9.00;99.90;;;;;;4918271;29;20788;-60
2023/04/12 12:38:50;;;;;;;6.17;3.20;;;9.10;99.90;;;;;;4918528;29;20235;-60
2023/04/12 12:41:21;;;;;;;4.17;3.17;;;9.20;99.90;;;;;;4918513;29;20269;-60
2023/04/12 12:43:50;;;;;;;7.73;4.63;;;9.30;99.90;;;;;;4918904;29;20229;-60
2023/04/12 12:46:20;;;;;;;7.60;4.20;;;9.30;99.90;;;;;;4918553;29;20245;-60
2023/04/12 12:48:48;;;;;;;4.53;3.23;;;9.30;99.90;;;;;;4918608;29;20315;-60
2023/04/12 12:51:18;;;;;;;7.10;4.03;;;9.30;99.90;;;;;;4918801;29;20720;-60
2023/04/12 12:53:46;;;;;;;5.57;3.40;;;9.20;99.90;;;;;;4918163;29;20256;-60
2023/04/12 12:56:15;;;;;;;5.50;3.77;;;9.20;99.90;;;;;;4918648;29;20234;-60
2023/04/12 12:58:45;;;;;;;6.40;3.67;;;9.20;99.90;;;;;;4932892;29;20241;-60
2023/04/12 13:01:13;;;;;;;6.47;3.83;;;9.20;99.90;;;;;;4917933;29;20328;-60
2023/04/12 13:03:41;;;;;;;6.63;4.43;;;9.10;99.90;;;;;;4917620;29;20737;-60
2023/04/12 13:06:10;;;;;;;6.30;4.10;;;9.20;99.90;;;;;;4918294;29;20710;-60
2023/04/12 13:08:38;;;;;;;5.67;3.83;;;9.20;99.90;;;;;;4917795;29;20234;-60
2023/04/12 13:11:07;;;;;;;5.03;3.13;;;9.20;99.90;;;;;;4918287;29;20583;-60
2023/04/12 13:13:35;;;;;;;7.57;3.17;;;9.20;99.90;;;;;;4917973;29;20594;-60
2023/04/12 13:16:07;;;;;;;5.10;3.10;;;9.10;99.90;;;;;;4917870;29;20290;-59
2023/04/12 13:18:35;;;;;;;3.83;3.13;;;9.10;99.90;;;;;;4917863;29;20714;-59